sensor_id;sensor_type;location;lat;lon;timestamp;temperature;humidity
2851;DHT22;1433;49.976;8.342;2022-09-20T00:01:28;10.60;99.90
2851;DHT22;1433;49.976;8.342;2022-09-20T00:03:58;10.70;99.90
2851;DHT22;1433;49.976;8.342;2022-09-20T00:06:27;10.60;99.90
2851;DHT22;1433;49.976;8.342;2022-09-20T00:08:54;10.60;99.90
2851;DHT22;1433;49.976;8.342;2022-09-20T00:11:24;10.60;99.90
2851;DHT22;1433;49.976;8.342;2022-09-20T00:13:52;10.50;99.90
2851;DHT22;1433;49.976;8.342;2022-09-20T00:16:27;10.50;99.90
2851;DHT22;1433;49.976;8.342;2022-09-20T00:18:50;10.50;99.90
2851;DHT22;1433;49.976;8.342;2022-09-20T00:21:20;10.50;99.90
2851;DHT22;1433;49.976;8.342;2022-09-20T00:23:47;10.60;99.90
2851;DHT22;1433;49.976;8.342;2022-09-20T00:26:13;10.50;99.90
2851;DHT22;1433;49.976;8.342;2022-09-20T00:28:40;10.40;99.90
2851;DHT22;1433;49.976;8.342;2022-09-20T00:31:06;10.40;99.90
2851;DHT22;1433;49.976;8.342;2022-09-20T00:33:33;10.30;99.90
2851;DHT22;1433;49.976;8.342;2022-09-20T00:36:17;10.40;99.90
2851;DHT22;1433;49.976;8.342;2022-09-20T00:38:44;10.40;99.90
2851;DHT22;1433;49.976;8.342;2022-09-20T00:41:10;10.40;99.90
2851;DHT22;1433;49.976;8.342;2022-09-20T00:43:41;10.30;99.90
2851;DHT22;1433;49.976;8.342;2022-09-20T00:46:32;10.20;99.90
2851;DHT22;1433;49.976;8.342;2022-09-20T00:48:41;10.10;99.90
2851;DHT22;1433;49.976;8.342;2022-09-20T00:51:10;10.00;99.90
2851;DHT22;1433;49.976;8.342;2022-09-20T00:53:41;10.00;99.90
2851;DHT22;1433;49.976;8.342;2022-09-20T00:56:19;9.90;99.90
2851;DHT22;1433;49.976;8.342;2022-09-20T00:58:56;9.70;99.90
2851;DHT22;1433;49.976;8.342;2022-09-20T01:01:19;9.60;99.90
2851;DHT22;1433;49.976;8.342;2022-09-20T01:03:45;9.60;99.90
2851;DHT22;1433;49.976;8.342;2022-09-20T01:06:14;9.50;99.90
2851;DHT22;1433;49.976;8.342;2022-09-20T01:08:44;9.40;99.90
2851;DHT22;1433;49.976;8.342;2022-09-20T01:11:10;9.30;99.90
2851;DHT22;1433;49.976;8.342;2022-09-20T01:13:37;9.20;99.90
2851;DHT22;1433;49.976;8.342;2022-09-20T01:16:04;9.20;99.90
2851;DHT22;1433;49.976;8.342;2022-09-20T01:18:32;9.10;99.90
2851;DHT22;1433;49.976;8.342;2022-09-20T01:21:00;9.10;99.90
2851;DHT22;1433;49.976;8.342;2022-09-20T01:24:01;9.00;99.90
2851;DHT22;1433;49.976;8.342;2022-09-20T01:31:52;8.90;99.90
2851;DHT22;1433;49.976;8.342;2022-09-20T01:34:32;8.80;99.90
2851;DHT22;1433;49.976;8.342;2022-09-20T01:39:53;8.70;99.90
2851;DHT22;1433;49.976;8.342;2022-09-20T01:42:22;8.60;99.90
2851;DHT22;1433;49.976;8.342;2022-09-20T02:01:30;8.40;99.90
2851;DHT22;1433;49.976;8.342;2022-09-20T02:05:58;8.30;99.90
2851;DHT22;1433;49.976;8.342;2022-09-20T02:08:33;8.30;99.90
2851;DHT22;1433;49.976;8.342;2022-09-20T02:19:32;8.10;99.90
2851;DHT22;1433;49.976;8.342;2022-09-20T02:30:54;8.10;99.90
2851;DHT22;1433;49.976;8.342;2022-09-20T02:39:10;8.30;99.90
2851;DHT22;1433;49.976;8.342;2022-09-20T02:41:55;8.30;99.90
2851;DHT22;1433;49.976;8.342;2022-09-20T02:44:46;8.20;99.90
2851;DHT22;1433;49.976;8.342;2022-09-20T02:53:10;8.10;99.90
2851;DHT22;1433;49.976;8.342;2022-09-20T03:09:14;7.90;99.90
2851;DHT22;1433;49.976;8.342;2022-09-20T03:11:59;8.10;99.90
2851;DHT22;1433;49.976;8.342;2022-09-20T03:14:27;8.10;99.90
2851;DHT22;1433;49.976;8.342;2022-09-20T03:17:14;8.20;99.90
2851;DHT22;1433;49.976;8.342;2022-09-20T03:20:03;8.30;99.90
2851;DHT22;1433;49.976;8.342;2022-09-20T03:25:26;8.40;99.90
2851;DHT22;1433;49.976;8.342;2022-09-20T03:33:38;8.80;99.90
2851;DHT22;1433;49.976;8.342;2022-09-20T03:36:30;8.90;99.90
2851;DHT22;1433;49.976;8.342;2022-09-20T03:39:25;8.90;99.90
2851;DHT22;1433;49.976;8.342;2022-09-20T03:47:34;9.30;99.90
2851;DHT22;1433;49.976;8.342;2022-09-20T03:50:15;9.20;99.90
2851;DHT22;1433;49.976;8.342;2022-09-20T03:56:06;9.20;99.90
2851;DHT22;1433;49.976;8.342;2022-09-20T03:59:03;9.20;99.90
2851;DHT22;1433;49.976;8.342;2022-09-20T04:01:38;9.20;99.90
2851;DHT22;1433;49.976;8.342;2022-09-20T04:04:18;9.20;99.90
2851;DHT22;1433;49.976;8.342;2022-09-20T04:07:11;9.20;99.90
2851;DHT22;1433;49.976;8.342;2022-09-20T04:18:34;9.10;99.90
2851;DHT22;1433;49.976;8.342;2022-09-20T04:20:45;9.00;99.90
2851;DHT22;1433;49.976;8.342;2022-09-20T04:23:28;8.90;99.90
2851;DHT22;1433;49.976;8.342;2022-09-20T04:25:45;9.00;99.90
2851;DHT22;1433;49.976;8.342;2022-09-20T04:28:21;9.30;99.90
2851;DHT22;1433;49.976;8.342;2022-09-20T04:30:50;9.50;99.90
2851;DHT22;1433;49.976;8.342;2022-09-20T04:33:34;9.50;99.90
2851;DHT22;1433;49.976;8.342;2022-09-20T04:38:58;9.50;99.90
2851;DHT22;1433;49.976;8.342;2022-09-20T04:44:33;9.40;99.90
2851;DHT22;1433;49.976;8.342;2022-09-20T04:55:33;9.70;99.90
2851;DHT22;1433;49.976;8.342;2022-09-20T05:00:20;9.50;99.90
2851;DHT22;1433;49.976;8.342;2022-09-20T05:06:15;9.30;99.90
2851;DHT22;1433;49.976;8.342;2022-09-20T05:25:52;8.80;99.90
2851;DHT22;1433;49.976;8.342;2022-09-20T05:28:30;8.90;99.90
2851;DHT22;1433;49.976;8.342;2022-09-20T05:31:00;8.90;99.90
2851;DHT22;1433;49.976;8.342;2022-09-20T05:33:36;8.90;99.90
2851;DHT22;1433;49.976;8.342;2022-09-20T05:38:59;8.90;99.90
2851;DHT22;1433;49.976;8.342;2022-09-20T05:41:51;9.00;99.90
2851;DHT22;1433;49.976;8.342;2022-09-20T05:47:17;9.00;99.90
2851;DHT22;1433;49.976;8.342;2022-09-20T06:01:16;9.30;99.90
2851;DHT22;1433;49.976;8.342;2022-09-20T06:04:07;9.20;99.90
2851;DHT22;1433;49.976;8.342;2022-09-20T06:09:18;9.20;99.90
2851;DHT22;1433;49.976;8.342;2022-09-20T06:14:54;9.10;99.90
2851;DHT22;1433;49.976;8.342;2022-09-20T06:18:25;9.10;99.90
2851;DHT22;1433;49.976;8.342;2022-09-20T06:22:54;9.10;99.90
2851;DHT22;1433;49.976;8.342;2022-09-20T06:25:24;9.10;99.90
2851;DHT22;1433;49.976;8.342;2022-09-20T06:28:57;9.20;99.90
2851;DHT22;1433;49.976;8.342;2022-09-20T06:30:38;9.50;99.90
2851;DHT22;1433;49.976;8.342;2022-09-20T06:35:42;9.70;99.90
2851;DHT22;1433;49.976;8.342;2022-09-20T06:38:19;9.90;99.90
2851;DHT22;1433;49.976;8.342;2022-09-20T06:41:02;10.10;99.90
2851;DHT22;1433;49.976;8.342;2022-09-20T06:43:47;10.10;99.90
2851;DHT22;1433;49.976;8.342;2022-09-20T06:46:14;10.30;99.90
2851;DHT22;1433;49.976;8.342;2022-09-20T06:48:40;10.40;99.90
2851;DHT22;1433;49.976;8.342;2022-09-20T06:51:07;10.60;99.90
2851;DHT22;1433;49.976;8.342;2022-09-20T06:53:38;10.80;99.90
2851;DHT22;1433;49.976;8.342;2022-09-20T06:56:21;11.00;99.90
2851;DHT22;1433;49.976;8.342;2022-09-20T06:58:45;11.20;99.90
2851;DHT22;1433;49.976;8.342;2022-09-20T07:01:11;11.30;99.90
2851;DHT22;1433;49.976;8.342;2022-09-20T07:03:39;11.40;99.90
2851;DHT22;1433;49.976;8.342;2022-09-20T07:06:05;11.40;99.90
2851;DHT22;1433;49.976;8.342;2022-09-20T07:08:31;11.40;99.90
2851;DHT22;1433;49.976;8.342;2022-09-20T07:11:06;11.40;99.90
2851;DHT22;1433;49.976;8.342;2022-09-20T07:13:30;11.40;99.90
2851;DHT22;1433;49.976;8.342;2022-09-20T07:16:02;11.50;99.90
2851;DHT22;1433;49.976;8.342;2022-09-20T07:18:28;11.60;99.90
2851;DHT22;1433;49.976;8.342;2022-09-20T07:20:54;11.80;99.90
2851;DHT22;1433;49.976;8.342;2022-09-20T07:23:23;12.10;99.90
2851;DHT22;1433;49.976;8.342;2022-09-20T07:25:49;12.20;99.90
2851;DHT22;1433;49.976;8.342;2022-09-20T07:28:16;12.30;99.90
2851;DHT22;1433;49.976;8.342;2022-09-20T07:30:45;12.20;99.90
2851;DHT22;1433;49.976;8.342;2022-09-20T07:33:11;12.10;99.90
2851;DHT22;1433;49.976;8.342;2022-09-20T07:35:39;12.00;99.90
2851;DHT22;1433;49.976;8.342;2022-09-20T07:38:06;12.10;99.90
2851;DHT22;1433;49.976;8.342;2022-09-20T07:40:33;12.20;99.90
2851;DHT22;1433;49.976;8.342;2022-09-20T07:42:59;12.40;99.90
2851;DHT22;1433;49.976;8.342;2022-09-20T07:45:25;12.70;99.90
2851;DHT22;1433;49.976;8.342;2022-09-20T07:47:52;12.80;99.90
2851;DHT22;1433;49.976;8.342;2022-09-20T07:50:18;12.80;99.90
2851;DHT22;1433;49.976;8.342;2022-09-20T07:52:44;12.90;99.90
2851;DHT22;1433;49.976;8.342;2022-09-20T07:55:10;12.90;99.90
2851;DHT22;1433;49.976;8.342;2022-09-20T07:57:37;13.10;99.90
2851;DHT22;1433;49.976;8.342;2022-09-20T08:00:07;13.40;99.90
2851;DHT22;1433;49.976;8.342;2022-09-20T08:02:36;13.50;99.90
2851;DHT22;1433;49.976;8.342;2022-09-20T08:05:02;13.60;99.90
2851;DHT22;1433;49.976;8.342;2022-09-20T08:07:29;13.60;99.90
2851;DHT22;1433;49.976;8.342;2022-09-20T08:09:55;13.70;99.90
2851;DHT22;1433;49.976;8.342;2022-09-20T08:12:22;13.70;99.90
2851;DHT22;1433;49.976;8.342;2022-09-20T08:14:48;13.50;99.90
2851;DHT22;1433;49.976;8.342;2022-09-20T08:17:14;13.60;99.90
2851;DHT22;1433;49.976;8.342;2022-09-20T08:19:41;13.70;99.90
2851;DHT22;1433;49.976;8.342;2022-09-20T08:22:09;13.80;99.90
2851;DHT22;1433;49.976;8.342;2022-09-20T08:24:37;14.00;99.90
2851;DHT22;1433;49.976;8.342;2022-09-20T08:27:04;13.90;99.90
2851;DHT22;1433;49.976;8.342;2022-09-20T08:29:30;13.80;99.90
2851;DHT22;1433;49.976;8.342;2022-09-20T08:31:56;13.50;99.90
2851;DHT22;1433;49.976;8.342;2022-09-20T08:34:24;13.20;99.90
2851;DHT22;1433;49.976;8.342;2022-09-20T08:36:51;13.10;99.90
2851;DHT22;1433;49.976;8.342;2022-09-20T08:39:19;13.10;99.90
2851;DHT22;1433;49.976;8.342;2022-09-20T08:41:47;13.30;99.90
2851;DHT22;1433;49.976;8.342;2022-09-20T08:44:39;13.50;99.90
2851;DHT22;1433;49.976;8.342;2022-09-20T08:49:35;14.10;99.90
2851;DHT22;1433;49.976;8.342;2022-09-20T08:52:02;14.50;99.90
2851;DHT22;1433;49.976;8.342;2022-09-20T08:54:31;14.80;99.90
2851;DHT22;1433;49.976;8.342;2022-09-20T08:57:03;14.90;99.90
2851;DHT22;1433;49.976;8.342;2022-09-20T08:59:30;14.80;99.90
2851;DHT22;1433;49.976;8.342;2022-09-20T09:01:57;14.70;99.90
2851;DHT22;1433;49.976;8.342;2022-09-20T09:04:30;14.90;99.90
2851;DHT22;1433;49.976;8.342;2022-09-20T09:06:56;15.20;99.90
2851;DHT22;1433;49.976;8.342;2022-09-20T09:09:24;14.70;99.90
2851;DHT22;1433;49.976;8.342;2022-09-20T09:11:52;14.60;99.90
2851;DHT22;1433;49.976;8.342;2022-09-20T09:17:16;14.50;99.90
2851;DHT22;1433;49.976;8.342;2022-09-20T09:19:52;14.60;99.90
2851;DHT22;1433;49.976;8.342;2022-09-20T09:27:34;15.70;99.90
2851;DHT22;1433;49.976;8.342;2022-09-20T09:30:17;15.80;99.90
2851;DHT22;1433;49.976;8.342;2022-09-20T09:32:32;16.20;99.90
2851;DHT22;1433;49.976;8.342;2022-09-20T09:35:24;16.30;99.90
2851;DHT22;1433;49.976;8.342;2022-09-20T09:37:57;16.70;99.90
2851;DHT22;1433;49.976;8.342;2022-09-20T09:40:24;16.50;99.90
2851;DHT22;1433;49.976;8.342;2022-09-20T09:42:56;15.90;99.90
2851;DHT22;1433;49.976;8.342;2022-09-20T09:45:34;15.70;99.90
2851;DHT22;1433;49.976;8.342;2022-09-20T09:50:44;15.50;99.90
2851;DHT22;1433;49.976;8.342;2022-09-20T09:53:20;15.50;99.90
2851;DHT22;1433;49.976;8.342;2022-09-20T10:01:28;15.00;99.90
2851;DHT22;1433;49.976;8.342;2022-09-20T10:04:05;15.00;99.90
2851;DHT22;1433;49.976;8.342;2022-09-20T10:06:27;15.00;99.90
2851;DHT22;1433;49.976;8.342;2022-09-20T10:11:56;15.30;99.90
2851;DHT22;1433;49.976;8.342;2022-09-20T10:22:50;16.60;99.90
2851;DHT22;1433;49.976;8.342;2022-09-20T10:36:37;16.40;99.90
2851;DHT22;1433;49.976;8.342;2022-09-20T10:42:07;16.50;99.90
2851;DHT22;1433;49.976;8.342;2022-09-20T10:44:50;16.60;99.90
2851;DHT22;1433;49.976;8.342;2022-09-20T10:47:18;16.40;99.90
2851;DHT22;1433;49.976;8.342;2022-09-20T10:50:09;15.60;99.90
2851;DHT22;1433;49.976;8.342;2022-09-20T11:00:58;15.40;99.90
2851;DHT22;1433;49.976;8.342;2022-09-20T11:08:56;16.10;99.90
2851;DHT22;1433;49.976;8.342;2022-09-20T11:11:26;16.50;99.90
2851;DHT22;1433;49.976;8.342;2022-09-20T11:16:35;18.10;99.90
2851;DHT22;1433;49.976;8.342;2022-09-20T11:19:03;18.40;99.90
2851;DHT22;1433;49.976;8.342;2022-09-20T11:21:36;18.10;99.90
2851;DHT22;1433;49.976;8.342;2022-09-20T11:24:09;17.20;99.90
2851;DHT22;1433;49.976;8.342;2022-09-20T11:26:41;16.60;99.90
2851;DHT22;1433;49.976;8.342;2022-09-20T11:29:20;16.10;99.90
2851;DHT22;1433;49.976;8.342;2022-09-20T11:31:46;15.70;99.90
2851;DHT22;1433;49.976;8.342;2022-09-20T11:34:27;15.90;99.90
2851;DHT22;1433;49.976;8.342;2022-09-20T11:36:55;15.50;99.90
2851;DHT22;1433;49.976;8.342;2022-09-20T11:42:00;15.40;99.90
2851;DHT22;1433;49.976;8.342;2022-09-20T11:44:27;16.70;99.90
2851;DHT22;1433;49.976;8.342;2022-09-20T11:47:00;18.80;99.90
2851;DHT22;1433;49.976;8.342;2022-09-20T11:57:43;19.90;99.90
2851;DHT22;1433;49.976;8.342;2022-09-20T12:00:10;21.70;99.90
2851;DHT22;1433;49.976;8.342;2022-09-20T12:05:38;24.60;99.90
2851;DHT22;1433;49.976;8.342;2022-09-20T12:08:16;26.00;99.90
2851;DHT22;1433;49.976;8.342;2022-09-20T12:10:37;26.80;99.90
2851;DHT22;1433;49.976;8.342;2022-09-20T12:13:19;27.10;99.90
2851;DHT22;1433;49.976;8.342;2022-09-20T12:16:05;27.70;99.90
2851;DHT22;1433;49.976;8.342;2022-09-20T12:21:18;26.80;99.90
2851;DHT22;1433;49.976;8.342;2022-09-20T12:29:00;22.30;99.90
2851;DHT22;1433;49.976;8.342;2022-09-20T12:36:31;18.90;99.90
2851;DHT22;1433;49.976;8.342;2022-09-20T12:44:43;18.80;99.90
2851;DHT22;1433;49.976;8.342;2022-09-20T12:49:49;19.10;99.90
2851;DHT22;1433;49.976;8.342;2022-09-20T12:55:39;20.70;99.90
2851;DHT22;1433;49.976;8.342;2022-09-20T13:03:45;22.10;99.90
2851;DHT22;1433;49.976;8.342;2022-09-20T13:11:42;21.10;99.90
2851;DHT22;1433;49.976;8.342;2022-09-20T13:14:22;20.10;99.90
2851;DHT22;1433;49.976;8.342;2022-09-20T13:17:14;18.70;99.90
2851;DHT22;1433;49.976;8.342;2022-09-20T13:19:42;18.40;99.90
2851;DHT22;1433;49.976;8.342;2022-09-20T13:24:56;17.70;99.90
2851;DHT22;1433;49.976;8.342;2022-09-20T13:27:39;17.50;99.90
2851;DHT22;1433;49.976;8.342;2022-09-20T13:30:20;18.20;99.90
2851;DHT22;1433;49.976;8.342;2022-09-20T13:32:48;18.90;99.90
2851;DHT22;1433;49.976;8.342;2022-09-20T13:35:20;19.40;99.90
2851;DHT22;1433;49.976;8.342;2022-09-20T13:37:52;19.50;99.90
2851;DHT22;1433;49.976;8.342;2022-09-20T13:40:38;19.40;99.90
2851;DHT22;1433;49.976;8.342;2022-09-20T13:43:05;19.80;99.90
2851;DHT22;1433;49.976;8.342;2022-09-20T13:45:32;19.30;99.90
2851;DHT22;1433;49.976;8.342;2022-09-20T13:48:00;18.80;99.90
2851;DHT22;1433;49.976;8.342;2022-09-20T13:50:32;18.90;99.90
2851;DHT22;1433;49.976;8.342;2022-09-20T13:53:00;18.80;99.90
2851;DHT22;1433;49.976;8.342;2022-09-20T13:55:32;17.80;99.90
2851;DHT22;1433;49.976;8.342;2022-09-20T13:58:01;17.60;99.90
2851;DHT22;1433;49.976;8.342;2022-09-20T14:00:30;17.10;99.90
2851;DHT22;1433;49.976;8.342;2022-09-20T14:02:57;16.90;99.90
2851;DHT22;1433;49.976;8.342;2022-09-20T14:05:26;16.90;99.90
2851;DHT22;1433;49.976;8.342;2022-09-20T14:07:54;16.90;99.90
2851;DHT22;1433;49.976;8.342;2022-09-20T14:10:33;17.60;99.90
2851;DHT22;1433;49.976;8.342;2022-09-20T14:13:07;17.90;99.90
2851;DHT22;1433;49.976;8.342;2022-09-20T14:15:37;17.60;99.90
2851;DHT22;1433;49.976;8.342;2022-09-20T14:18:06;17.30;99.90
2851;DHT22;1433;49.976;8.342;2022-09-20T14:20:32;16.90;99.90
2851;DHT22;1433;49.976;8.342;2022-09-20T14:22:59;16.50;99.90
2851;DHT22;1433;49.976;8.342;2022-09-20T14:25:26;16.30;99.90
2851;DHT22;1433;49.976;8.342;2022-09-20T14:28:16;15.90;99.90
2851;DHT22;1433;49.976;8.342;2022-09-20T14:30:44;15.60;99.90
2851;DHT22;1433;49.976;8.342;2022-09-20T14:33:14;15.50;99.90
2851;DHT22;1433;49.976;8.342;2022-09-20T14:35:50;15.40;99.90
2851;DHT22;1433;49.976;8.342;2022-09-20T14:38:21;15.30;99.90
2851;DHT22;1433;49.976;8.342;2022-09-20T14:40:47;15.20;99.90
2851;DHT22;1433;49.976;8.342;2022-09-20T14:43:30;15.20;99.90
2851;DHT22;1433;49.976;8.342;2022-09-20T14:45:55;15.10;99.90
2851;DHT22;1433;49.976;8.342;2022-09-20T14:53:45;15.20;99.90
2851;DHT22;1433;49.976;8.342;2022-09-20T14:56:14;15.10;99.90
2851;DHT22;1433;49.976;8.342;2022-09-20T14:59:22;15.10;99.90
2851;DHT22;1433;49.976;8.342;2022-09-20T15:01:29;15.20;99.90
2851;DHT22;1433;49.976;8.342;2022-09-20T15:03:56;15.40;99.90
2851;DHT22;1433;49.976;8.342;2022-09-20T15:06:24;15.30;99.90
2851;DHT22;1433;49.976;8.342;2022-09-20T15:08:50;15.30;99.90
2851;DHT22;1433;49.976;8.342;2022-09-20T15:11:17;15.20;99.90
2851;DHT22;1433;49.976;8.342;2022-09-20T15:13:44;15.20;99.90
2851;DHT22;1433;49.976;8.342;2022-09-20T15:16:11;15.20;99.90
2851;DHT22;1433;49.976;8.342;2022-09-20T15:18:40;15.20;99.90
2851;DHT22;1433;49.976;8.342;2022-09-20T15:21:08;15.10;99.90
2851;DHT22;1433;49.976;8.342;2022-09-20T15:23:36;15.20;99.90
2851;DHT22;1433;49.976;8.342;2022-09-20T15:26:05;15.20;99.90
2851;DHT22;1433;49.976;8.342;2022-09-20T15:28:32;15.30;99.90
2851;DHT22;1433;49.976;8.342;2022-09-20T15:30:59;15.70;99.90
2851;DHT22;1433;49.976;8.342;2022-09-20T15:33:28;16.30;99.90
2851;DHT22;1433;49.976;8.342;2022-09-20T15:35:54;16.90;99.90
2851;DHT22;1433;49.976;8.342;2022-09-20T15:38:20;17.00;99.90
2851;DHT22;1433;49.976;8.342;2022-09-20T15:40:49;17.20;99.90
2851;DHT22;1433;49.976;8.342;2022-09-20T15:43:17;17.10;99.90
2851;DHT22;1433;49.976;8.342;2022-09-20T15:45:53;17.30;99.90
2851;DHT22;1433;49.976;8.342;2022-09-20T15:48:22;17.30;99.90
2851;DHT22;1433;49.976;8.342;2022-09-20T15:53:35;16.50;99.90
2851;DHT22;1433;49.976;8.342;2022-09-20T15:56:04;16.70;99.90
2851;DHT22;1433;49.976;8.342;2022-09-20T15:58:32;16.60;99.90
2851;DHT22;1433;49.976;8.342;2022-09-20T16:01:04;16.50;99.90
2851;DHT22;1433;49.976;8.342;2022-09-20T16:03:31;16.20;99.90
2851;DHT22;1433;49.976;8.342;2022-09-20T16:06:04;16.20;99.90
2851;DHT22;1433;49.976;8.342;2022-09-20T16:08:36;16.00;99.90
2851;DHT22;1433;49.976;8.342;2022-09-20T16:11:04;16.00;99.90
2851;DHT22;1433;49.976;8.342;2022-09-20T16:13:31;16.00;99.90
2851;DHT22;1433;49.976;8.342;2022-09-20T16:15:59;15.90;99.90
2851;DHT22;1433;49.976;8.342;2022-09-20T16:18:26;15.90;99.90
2851;DHT22;1433;49.976;8.342;2022-09-20T16:21:12;15.90;99.90
2851;DHT22;1433;49.976;8.342;2022-09-20T16:23:40;15.80;99.90
2851;DHT22;1433;49.976;8.342;2022-09-20T16:26:08;15.70;99.90
2851;DHT22;1433;49.976;8.342;2022-09-20T16:28:36;15.40;99.90
2851;DHT22;1433;49.976;8.342;2022-09-20T16:31:02;15.30;99.90
2851;DHT22;1433;49.976;8.342;2022-09-20T16:33:29;15.10;99.90
2851;DHT22;1433;49.976;8.342;2022-09-20T16:35:58;15.00;99.90
2851;DHT22;1433;49.976;8.342;2022-09-20T16:38:24;14.90;99.90
2851;DHT22;1433;49.976;8.342;2022-09-20T16:40:51;14.80;99.90
2851;DHT22;1433;49.976;8.342;2022-09-20T16:43:17;14.80;99.90
2851;DHT22;1433;49.976;8.342;2022-09-20T16:45:48;14.70;99.90
2851;DHT22;1433;49.976;8.342;2022-09-20T16:48:15;14.70;99.90
2851;DHT22;1433;49.976;8.342;2022-09-20T16:50:41;14.70;99.90
2851;DHT22;1433;49.976;8.342;2022-09-20T16:53:09;14.60;99.90
2851;DHT22;1433;49.976;8.342;2022-09-20T16:55:36;14.60;99.90
2851;DHT22;1433;49.976;8.342;2022-09-20T16:58:03;14.50;99.90
2851;DHT22;1433;49.976;8.342;2022-09-20T17:00:29;14.50;99.90
2851;DHT22;1433;49.976;8.342;2022-09-20T17:02:57;14.40;99.90
2851;DHT22;1433;49.976;8.342;2022-09-20T17:05:23;14.40;99.90
2851;DHT22;1433;49.976;8.342;2022-09-20T17:07:50;14.40;99.90
2851;DHT22;1433;49.976;8.342;2022-09-20T17:10:16;14.30;99.90
2851;DHT22;1433;49.976;8.342;2022-09-20T17:12:42;14.20;99.90
2851;DHT22;1433;49.976;8.342;2022-09-20T17:15:10;14.20;99.90
2851;DHT22;1433;49.976;8.342;2022-09-20T17:17:38;14.10;99.90
2851;DHT22;1433;49.976;8.342;2022-09-20T17:20:05;14.10;99.90
2851;DHT22;1433;49.976;8.342;2022-09-20T17:22:32;14.00;99.90
2851;DHT22;1433;49.976;8.342;2022-09-20T17:24:58;13.90;99.90
2851;DHT22;1433;49.976;8.342;2022-09-20T17:27:25;13.90;99.90
2851;DHT22;1433;49.976;8.342;2022-09-20T17:29:51;13.80;99.90
2851;DHT22;1433;49.976;8.342;2022-09-20T17:32:17;13.70;99.90
2851;DHT22;1433;49.976;8.342;2022-09-20T17:34:44;13.70;99.90
2851;DHT22;1433;49.976;8.342;2022-09-20T17:37:10;13.60;99.90
2851;DHT22;1433;49.976;8.342;2022-09-20T17:39:36;13.50;99.90
2851;DHT22;1433;49.976;8.342;2022-09-20T17:42:02;13.50;99.90
2851;DHT22;1433;49.976;8.342;2022-09-20T17:44:29;13.50;99.90
2851;DHT22;1433;49.976;8.342;2022-09-20T17:46:57;13.40;99.90
2851;DHT22;1433;49.976;8.342;2022-09-20T17:49:23;13.40;99.90
2851;DHT22;1433;49.976;8.342;2022-09-20T17:51:53;13.30;99.90
2851;DHT22;1433;49.976;8.342;2022-09-20T17:54:20;13.20;99.90
2851;DHT22;1433;49.976;8.342;2022-09-20T17:56:48;13.20;99.90
2851;DHT22;1433;49.976;8.342;2022-09-20T17:59:16;13.10;99.90
2851;DHT22;1433;49.976;8.342;2022-09-20T18:01:44;13.00;99.90
2851;DHT22;1433;49.976;8.342;2022-09-20T18:04:11;12.90;99.90
2851;DHT22;1433;49.976;8.342;2022-09-20T18:06:40;12.80;99.90
2851;DHT22;1433;49.976;8.342;2022-09-20T18:09:12;12.80;99.90
2851;DHT22;1433;49.976;8.342;2022-09-20T18:11:44;12.70;99.90
2851;DHT22;1433;49.976;8.342;2022-09-20T18:14:12;12.60;99.90
2851;DHT22;1433;49.976;8.342;2022-09-20T18:16:38;12.60;99.90
2851;DHT22;1433;49.976;8.342;2022-09-20T18:19:06;12.50;99.90
2851;DHT22;1433;49.976;8.342;2022-09-20T18:21:33;12.50;99.90
2851;DHT22;1433;49.976;8.342;2022-09-20T18:24:07;12.50;99.90
2851;DHT22;1433;49.976;8.342;2022-09-20T18:26:31;12.50;99.90
2851;DHT22;1433;49.976;8.342;2022-09-20T18:29:10;12.40;99.90
2851;DHT22;1433;49.976;8.342;2022-09-20T18:31:42;12.40;99.90
2851;DHT22;1433;49.976;8.342;2022-09-20T18:34:15;12.30;99.90
2851;DHT22;1433;49.976;8.342;2022-09-20T18:36:51;12.30;99.90
2851;DHT22;1433;49.976;8.342;2022-09-20T18:39:22;12.30;99.90
2851;DHT22;1433;49.976;8.342;2022-09-20T18:41:49;12.20;99.90
2851;DHT22;1433;49.976;8.342;2022-09-20T18:44:16;12.20;99.90
2851;DHT22;1433;49.976;8.342;2022-09-20T18:46:48;12.20;99.90
2851;DHT22;1433;49.976;8.342;2022-09-20T18:49:12;12.10;99.90
2851;DHT22;1433;49.976;8.342;2022-09-20T18:51:42;12.10;99.90
2851;DHT22;1433;49.976;8.342;2022-09-20T18:54:09;12.10;99.90
2851;DHT22;1433;49.976;8.342;2022-09-20T18:56:38;12.10;99.90
2851;DHT22;1433;49.976;8.342;2022-09-20T18:59:07;12.10;99.90
2851;DHT22;1433;49.976;8.342;2022-09-20T19:01:43;12.20;99.90
2851;DHT22;1433;49.976;8.342;2022-09-20T19:06:49;12.30;99.90
2851;DHT22;1433;49.976;8.342;2022-09-20T19:09:17;12.30;99.90
2851;DHT22;1433;49.976;8.342;2022-09-20T19:11:46;12.30;99.90
2851;DHT22;1433;49.976;8.342;2022-09-20T19:14:25;12.40;99.90
2851;DHT22;1433;49.976;8.342;2022-09-20T19:16:53;12.40;99.90
2851;DHT22;1433;49.976;8.342;2022-09-20T19:19:27;12.50;99.90
2851;DHT22;1433;49.976;8.342;2022-09-20T19:24:38;12.60;99.90
2851;DHT22;1433;49.976;8.342;2022-09-20T19:27:02;12.60;99.90
2851;DHT22;1433;49.976;8.342;2022-09-20T19:29:29;12.50;99.90
2851;DHT22;1433;49.976;8.342;2022-09-20T19:31:57;12.50;99.90
2851;DHT22;1433;49.976;8.342;2022-09-20T19:34:28;12.60;99.90
2851;DHT22;1433;49.976;8.342;2022-09-20T19:40:01;12.60;99.90
2851;DHT22;1433;49.976;8.342;2022-09-20T19:45:23;12.60;99.90
2851;DHT22;1433;49.976;8.342;2022-09-20T19:50:41;12.60;99.90
2851;DHT22;1433;49.976;8.342;2022-09-20T19:53:13;12.50;99.90
2851;DHT22;1433;49.976;8.342;2022-09-20T19:55:46;12.40;99.90
2851;DHT22;1433;49.976;8.342;2022-09-20T19:58:13;12.40;99.90
2851;DHT22;1433;49.976;8.342;2022-09-20T20:00:42;12.30;99.90
2851;DHT22;1433;49.976;8.342;2022-09-20T20:03:13;12.30;99.90
2851;DHT22;1433;49.976;8.342;2022-09-20T20:05:59;12.20;99.90
2851;DHT22;1433;49.976;8.342;2022-09-20T20:08:44;12.20;99.90
2851;DHT22;1433;49.976;8.342;2022-09-20T20:22:35;11.90;99.90
2851;DHT22;1433;49.976;8.342;2022-09-20T20:24:58;11.80;99.90
2851;DHT22;1433;49.976;8.342;2022-09-20T20:27:25;11.80;99.90
2851;DHT22;1433;49.976;8.342;2022-09-20T20:29:57;11.80;99.90
2851;DHT22;1433;49.976;8.342;2022-09-20T20:32:23;11.80;99.90
2851;DHT22;1433;49.976;8.342;2022-09-20T20:34:50;11.70;99.90
2851;DHT22;1433;49.976;8.342;2022-09-20T20:37:16;11.70;99.90
2851;DHT22;1433;49.976;8.342;2022-09-20T20:39:43;11.70;99.90
2851;DHT22;1433;49.976;8.342;2022-09-20T20:42:09;11.70;99.90
2851;DHT22;1433;49.976;8.342;2022-09-20T20:44:36;11.60;99.90
2851;DHT22;1433;49.976;8.342;2022-09-20T20:47:04;11.50;99.90
2851;DHT22;1433;49.976;8.342;2022-09-20T20:49:30;11.40;99.90
2851;DHT22;1433;49.976;8.342;2022-09-20T20:51:57;11.30;99.90
2851;DHT22;1433;49.976;8.342;2022-09-20T20:54:24;11.20;99.90
2851;DHT22;1433;49.976;8.342;2022-09-20T20:56:50;11.20;99.90
2851;DHT22;1433;49.976;8.342;2022-09-20T20:59:16;11.10;99.90
2851;DHT22;1433;49.976;8.342;2022-09-20T21:01:43;11.00;99.90
2851;DHT22;1433;49.976;8.342;2022-09-20T21:04:12;10.90;99.90
2851;DHT22;1433;49.976;8.342;2022-09-20T21:06:40;10.80;99.90
2851;DHT22;1433;49.976;8.342;2022-09-20T21:09:07;10.70;99.90
2851;DHT22;1433;49.976;8.342;2022-09-20T21:11:36;10.60;99.90
2851;DHT22;1433;49.976;8.342;2022-09-20T21:14:04;10.50;99.90
2851;DHT22;1433;49.976;8.342;2022-09-20T21:16:34;10.40;99.90
2851;DHT22;1433;49.976;8.342;2022-09-20T21:19:02;10.40;99.90
2851;DHT22;1433;49.976;8.342;2022-09-20T21:21:31;10.40;99.90
2851;DHT22;1433;49.976;8.342;2022-09-20T21:23:59;10.40;99.90
2851;DHT22;1433;49.976;8.342;2022-09-20T21:26:28;10.40;99.90
2851;DHT22;1433;49.976;8.342;2022-09-20T21:28:58;10.40;99.90
2851;DHT22;1433;49.976;8.342;2022-09-20T21:31:26;10.30;99.90
2851;DHT22;1433;49.976;8.342;2022-09-20T21:33:53;10.20;99.90